Time;durP1;ratioP1;P1;durP2;ratioP2;P2;SDS_P1;SDS_P2;PMS_P1;PMS_P2;Temp;Humidity;BMP_temperature;BMP_pressure;BME280_temperature;BME280_humidity;BME280_pressure;Samples;Min_cycle;Max_cycle;Signal;HPM_P1;HPM_P2
2022/12/16 00:00:03;;;;;;;29.05;14.65;;;;;;;-7.47;84.29;100577.28;5096481;28;20269;-69
2022/12/16 00:02:30;;;;;;;41.25;15.52;;;;;;;-7.51;84.38;100583.09;5097107;28;20577;-69
2022/12/16 00:04:57;;;;;;;23.88;13.75;;;;;;;-7.53;83.57;100580.63;5095967;28;20476;-69
2022/12/16 00:07:24;;;;;;;30.85;16.17;;;;;;;-7.52;84.43;100587.56;5096743;28;20589;-69
2022/12/16 00:09:52;;;;;;;31.25;13.82;;;;;;;-7.58;84.98;100593.53;5095892;28;20739;-69
2022/12/16 00:12:18;;;;;;;24.38;12.77;;;;;;;-7.58;85.86;100587.44;5092894;28;20207;-69
2022/12/16 00:14:45;;;;;;;32.75;16.77;;;;;;;-7.67;86.00;100589.34;5076753;28;20203;-69
2022/12/16 00:17:11;;;;;;;29.42;13.15;;;;;;;-7.77;86.17;100594.91;5096483;28;20230;-69
2022/12/16 00:19:38;;;;;;;20.88;11.65;;;;;;;-7.66;85.58;100591.81;5096489;28;20209;-71
2022/12/16 00:22:05;;;;;;;31.42;13.57;;;;;;;-7.64;85.90;100591.63;5095475;28;20298;-70
2022/12/16 00:24:31;;;;;;;22.65;13.35;;;;;;;-7.78;87.11;100592.47;5096475;28;20202;-70
2022/12/16 00:26:59;;;;;;;27.02;13.75;;;;;;;-7.78;86.52;100597.72;5096085;28;20329;-69
2022/12/16 00:29:26;;;;;;;27.60;14.73;;;;;;;-7.83;86.16;100600.88;5096767;28;20292;-69
2022/12/16 00:31:52;;;;;;;34.67;13.60;;;;;;;-7.87;85.72;100599.59;5095613;28;20685;-69
2022/12/16 00:34:19;;;;;;;24.27;13.70;;;;;;;-7.92;86.74;100604.59;5096555;28;20234;-70
2022/12/16 00:36:46;;;;;;;20.48;12.05;;;;;;;-7.95;86.83;100602.31;5095727;28;20305;-70
2022/12/16 00:39:12;;;;;;;37.53;14.02;;;;;;;-7.97;86.06;100601.66;5096533;28;20290;-70
2022/12/16 00:41:39;;;;;;;28.95;13.63;;;;;;;-7.90;86.36;100605.22;5095537;28;20315;-69
2022/12/16 00:44:07;;;;;;;26.65;14.18;;;;;;;-7.97;86.68;100605.13;5096392;28;20558;-70
2022/12/16 00:46:33;;;;;;;40.95;14.77;;;;;;;-7.96;85.73;100608.56;5095494;28;20285;-69
2022/12/16 00:49:00;;;;;;;22.45;12.15;;;;;;;-8.07;85.04;100615.06;5096007;28;20198;-69
2022/12/16 00:51:27;;;;;;;44.03;14.05;;;;;;;-7.98;84.95;100607.94;5095972;28;20211;-69
2022/12/16 00:53:53;;;;;;;35.45;14.73;;;;;;;-7.86;84.28;100606.50;5095747;28;20289;-69
2022/12/16 00:56:20;;;;;;;30.05;15.55;;;;;;;-8.02;86.02;100601.38;5095792;28;20725;-69
2022/12/16 00:58:47;;;;;;;33.25;13.27;;;;;;;-8.15;86.73;100605.44;5095013;28;20289;-69
2022/12/16 01:01:15;;;;;;;23.55;11.20;;;;;;;-8.15;86.03;100612.50;5095897;28;20577;-69
2022/12/16 01:03:41;;;;;;;33.35;14.50;;;;;;;-8.17;85.32;100606.63;5094591;28;20739;-69
2022/12/16 01:06:10;;;;;;;36.42;15.45;;;;;;;-8.09;86.10;100614.44;5095989;28;20237;-69
2022/12/16 01:08:36;;;;;;;22.20;13.02;;;;;;;-8.17;85.88;100617.13;5110103;22;20223;-68
2022/12/16 01:11:03;;;;;;;23.05;12.05;;;;;;;-7.87;84.94;100626.72;5075323;28;20230;-68
2022/12/16 01:13:30;;;;;;;25.83;11.45;;;;;;;-7.93;84.50;100616.91;5073448;28;20206;-68
2022/12/16 01:16:00;;;;;;;20.63;11.73;;;;;;;-8.12;85.31;100612.97;5075113;28;20313;-69
2022/12/16 01:18:28;;;;;;;29.00;13.77;;;;;;;-8.16;85.38;100622.19;5074199;28;20364;-68
2022/12/16 01:21:01;;;;;;;19.58;10.45;;;;;;;-8.20;85.72;100625.38;5074811;28;20205;-68
2022/12/16 01:23:28;;;;;;;21.27;9.93;;;;;;;-8.20;86.33;100630.63;5073344;28;20295;-69
2022/12/16 01:25:59;;;;;;;38.53;14.10;;;;;;;-8.22;85.07;100632.63;5075062;28;20196;-68
2022/12/16 01:28:25;;;;;;;40.95;14.55;;;;;;;-8.21;87.62;100635.06;5074543;28;20776;-69
2022/12/16 01:30:55;;;;;;;30.35;15.07;;;;;;;-8.04;87.09;100627.84;5075118;28;20293;-68
2022/12/16 01:33:22;;;;;;;25.88;10.68;;;;;;;-7.80;85.83;100620.72;5073225;28;20203;-68
2022/12/16 01:35:57;;;;;;;36.78;16.08;;;;;;;-7.80;85.79;100626.78;5074729;28;20474;-69
2022/12/16 01:38:24;;;;;;;42.17;14.90;;;;;;;-8.00;85.96;100626.50;5074211;28;20314;-68
2022/12/16 01:40:51;;;;;;;22.55;10.98;;;;;;;-8.10;85.04;100625.94;5074951;28;20242;-69
2022/12/16 01:43:20;;;;;;;30.55;13.93;;;;;;;-8.06;84.29;100627.19;5073126;28;20212;-68
2022/12/16 01:45:46;;;;;;;22.05;12.38;;;;;;;-8.05;83.99;100620.97;5074524;28;20237;-68
2022/12/16 01:48:22;;;;;;;20.60;11.27;;;;;;;-8.18;83.55;100621.56;5073969;28;20775;-68
2022/12/16 01:50:54;;;;;;;27.05;15.35;;;;;;;-8.29;83.89;100621.19;5074504;28;20623;-68
2022/12/16 01:53:20;;;;;;;24.38;15.30;;;;;;;-8.27;84.11;100619.22;5072948;28;20199;-68
2022/12/16 01:55:50;;;;;;;28.65;15.73;;;;;;;-8.33;83.30;100619.91;5074644;28;20318;-68
2022/12/16 01:58:22;;;;;;;21.40;11.68;;;;;;;-8.42;83.38;100614.72;5074194;28;20306;-68
2022/12/16 02:00:49;;;;;;;24.98;11.00;;;;;;;-8.54;83.74;100616.16;5074381;28;20269;-68
2022/12/16 02:03:16;;;;;;;37.20;15.25;;;;;;;-8.55;84.35;100621.56;5073428;28;20235;-68
2022/12/16 02:05:44;;;;;;;23.13;12.77;;;;;;;-8.65;84.89;100617.38;5074531;28;20241;-68
2022/12/16 02:08:14;;;;;;;22.80;11.73;;;;;;;-8.65;84.14;100627.06;5073668;28;20241;-68
2022/12/16 02:11:14;;;;;;;24.70;11.15;;;;;;;-8.63;84.49;100619.84;5074380;28;20238;-68
2022/12/16 02:14:00;;;;;;;23.73;12.68;;;;;;;-8.70;84.15;100613.66;5071925;28;20209;-69
2022/12/16 02:16:33;;;;;;;27.52;11.05;;;;;;;-8.47;83.63;100614.44;5073754;28;20302;-68
2022/12/16 02:19:05;;;;;;;17.02;10.65;;;;;;;-8.64;83.79;100618.19;5054872;28;20315;-67
2022/12/16 02:21:45;;;;;;;35.45;14.23;;;;;;;-8.53;84.96;100609.09;5055116;28;20282;-68
2022/12/16 02:24:48;;;;;;;31.90;13.52;;;;;;;-8.40;85.20;100615.38;5074162;28;20625;-68
2022/12/16 02:27:47;;;;;;;17.42;9.35;;;;;;;-8.54;84.53;100616.16;5072322;28;20648;-68
2022/12/16 02:30:59;;;;;;;21.75;9.68;;;;;;;-8.57;85.05;100619.13;5074242;28;20183;-68
2022/12/16 02:33:48;;;;;;;16.98;10.18;;;;;;;-8.60;83.54;100619.47;5035171;28;20273;-68
2022/12/16 02:36:24;;;;;;;14.63;7.32;;;;;;;-8.55;83.16;100611.88;5074412;28;20299;-69
2022/12/16 02:38:57;;;;;;;16.48;9.55;;;;;;;-8.36;83.08;100617.69;5054234;28;20717;-68
2022/12/16 02:41:33;;;;;;;24.48;12.98;;;;;;;-8.52;83.91;100606.28;5053880;28;20199;-68
2022/12/16 02:44:05;;;;;;;25.73;13.15;;;;;;;-8.61;84.64;100607.34;5071843;28;20355;-66
2022/12/16 02:46:33;;;;;;;29.92;13.18;;;;;;;-8.63;82.78;100611.97;5073384;28;20192;-66
2022/12/16 02:49:07;;;;;;;21.48;10.95;;;;;;;-8.60;84.13;100603.72;5072942;28;20227;-68
2022/12/16 02:51:36;;;;;;;26.67;10.50;;;;;;;-8.74;83.42;100609.72;5073617;28;20193;-68
2022/12/16 02:54:03;;;;;;;15.43;9.73;;;;;;;-8.69;83.46;100605.59;5072063;28;20310;-68
2022/12/16 02:56:46;;;;;;;25.45;14.02;;;;;;;-8.71;83.23;100612.84;5071780;28;20222;-68
2022/12/16 02:59:22;;;;;;;26.70;13.75;;;;;;;-8.73;83.95;100600.88;5072730;28;20258;-68
2022/12/16 03:01:54;;;;;;;29.73;13.60;;;;;;;-8.72;83.88;100605.97;5073674;28;20194;-68
2022/12/16 03:04:30;;;;;;;25.77;10.93;;;;;;;-8.77;83.12;100597.75;5071570;28;20224;-68
2022/12/16 03:06:58;;;;;;;31.60;14.52;;;;;;;-8.67;83.05;100603.63;5073241;28;20680;-68
2022/12/16 03:09:28;;;;;;;25.05;10.95;;;;;;;-8.85;84.05;100599.63;5072613;28;20245;-68
2022/12/16 03:11:57;;;;;;;17.17;12.15;;;;;;;-8.80;82.86;100598.13;5073441;28;20191;-66
2022/12/16 03:14:29;;;;;;;26.88;11.45;;;;;;;-8.73;82.79;100598.25;5071275;28;20676;-66
2022/12/16 03:16:57;;;;;;;18.73;10.10;;;;;;;-8.50;81.87;100593.81;5072962;28;20688;-66
2022/12/16 03:19:27;;;;;;;16.08;8.57;;;;;;;-8.47;82.82;100593.44;5072563;28;20229;-66
2022/12/16 03:22:00;;;;;;;28.13;13.98;;;;;;;-8.37;81.63;100593.19;5073043;28;20223;-66
2022/12/16 03:24:27;;;;;;;38.22;12.77;;;;;;;-8.60;81.92;100587.97;5072648;28;20210;-66
2022/12/16 03:27:02;;;;;;;20.90;12.23;;;;;;;-8.64;83.24;100584.06;5072157;28;20199;-66
2022/12/16 03:29:38;;;;;;;24.10;11.10;;;;;;;-8.72;81.37;100598.09;5073173;28;20222;-66
2022/12/16 03:32:10;;;;;;;27.00;10.70;;;;;;;-8.81;80.84;100606.16;5071695;28;20634;-66
2022/12/16 03:34:41;;;;;;;24.88;11.25;;;;;;;-8.87;81.29;100607.69;5073185;28;20282;-66
2022/12/16 03:37:11;;;;;;;25.27;12.75;;;;;;;-8.84;82.78;100606.53;5071281;28;20207;-65
2022/12/16 03:39:42;;;;;;;21.52;10.90;;;;;;;-8.86;84.29;100608.50;5072248;28;20215;-66
2022/12/16 03:42:10;;;;;;;22.98;11.32;;;;;;;-8.95;85.39;100599.84;5073060;28;20194;-66
2022/12/16 03:44:37;;;;;;;25.80;11.45;;;;;;;-8.78;85.21;100597.94;5072173;28;20293;-67
2022/12/16 03:47:03;;;;;;;25.45;13.60;;;;;;;-8.81;85.70;100596.47;5073069;28;20231;-67
2022/12/16 03:49:30;;;;;;;49.58;13.52;;;;;;;-8.78;84.26;100595.31;5070967;28;20246;-66
2022/12/16 03:51:58;;;;;;;19.77;10.82;;;;;;;-8.62;83.51;100594.41;5070997;28;20743;-67
2022/12/16 03:54:25;;;;;;;30.80;13.65;;;;;;;-8.62;82.67;100597.84;5071711;28;20220;-66
2022/12/16 03:56:51;;;;;;;24.60;13.30;;;;;;;-8.67;82.15;100589.69;5073061;28;20219;-68
2022/12/16 03:59:18;;;;;;;24.10;11.63;;;;;;;-8.62;80.75;100589.97;5071863;28;20253;-66
2022/12/16 04:01:45;;;;;;;32.45;11.25;;;;;;;-8.77;82.06;100591.69;5073015;28;20238;-66
2022/12/16 04:04:12;;;;;;;22.67;12.80;;;;;;;-8.97;81.39;100589.53;5071954;28;20238;-66
2022/12/16 04:06:39;;;;;;;32.92;13.05;;;;;;;-9.07;83.01;100590.75;5072773;28;20289;-67
2022/12/16 04:09:07;;;;;;;19.63;11.32;;;;;;;-9.03;82.81;100595.50;5071247;28;20314;-66
2022/12/16 04:25:24;;;;;;;19.02;11.32;;;;;;;-9.15;82.88;100595.06;5056847;28;20286;-67
2022/12/16 04:27:50;;;;;;;27.10;12.68;;;;;;;-9.21;80.91;100600.16;5072194;28;20306;-67
2022/12/16 04:30:19;;;;;;;25.80;13.55;;;;;;;-9.33;81.24;100607.63;5070740;28;20286;-66
